sensor_id;sensor_type;location;lat;lon;timestamp;pressure;altitude;pressure_sealevel;temperature;humidity
56402;BME280;42299;35.160;26.100;2023-09-30T05:56:50;101431.06;;;22.66;100.00
56402;BME280;42299;35.160;26.100;2023-09-30T06:07:13;101417.44;;;23.45;100.00
56402;BME280;42299;35.160;26.100;2023-09-30T06:17:37;101419.19;;;23.46;100.00
56402;BME280;42299;35.160;26.100;2023-09-30T06:28:00;101417.41;;;23.47;100.00
56402;BME280;42299;35.160;26.100;2023-09-30T06:38:27;101434.75;;;23.36;100.00
56402;BME280;42299;35.160;26.100;2023-09-30T06:48:50;101447.41;;;23.33;100.00
56402;BME280;42299;35.160;26.100;2023-09-30T06:59:15;101454.75;;;23.62;100.00
56402;BME280;42299;35.160;26.100;2023-09-30T07:09:38;101449.25;;;23.66;100.00
56402;BME280;42299;35.160;26.100;2023-09-30T07:20:03;101453.56;;;23.72;100.00
56402;BME280;42299;35.160;26.100;2023-09-30T07:30:26;101433.91;;;24.30;100.00
56402;BME280;42299;35.160;26.100;2023-09-30T07:40:50;101430.50;;;23.93;100.00
56402;BME280;42299;35.160;26.100;2023-09-30T07:51:13;101403.97;;;24.08;100.00
56402;BME280;42299;35.160;26.100;2023-09-30T08:01:37;101371.19;;;24.78;100.00
56402;BME280;42299;35.160;26.100;2023-09-30T08:12:01;101354.53;;;25.67;100.00
56402;BME280;42299;35.160;26.100;2023-09-30T08:22:25;101351.53;;;26.45;100.00
56402;BME280;42299;35.160;26.100;2023-09-30T08:32:49;101318.41;;;26.80;100.00
56402;BME280;42299;35.160;26.100;2023-09-30T08:43:14;101315.19;;;26.50;100.00
56402;BME280;42299;35.160;26.100;2023-09-30T08:53:40;101306.09;;;27.15;100.00
56402;BME280;42299;35.160;26.100;2023-09-30T09:04:07;101301.16;;;27.64;100.00
56402;BME280;42299;35.160;26.100;2023-09-30T09:14:39;101301.78;;;27.50;100.00
56402;BME280;42299;35.160;26.100;2023-09-30T09:25:05;101298.03;;;27.73;100.00
56402;BME280;42299;35.160;26.100;2023-09-30T09:35:28;101276.53;;;28.06;100.00
56402;BME280;42299;35.160;26.100;2023-09-30T09:45:56;101261.31;;;28.39;100.00
56402;BME280;42299;35.160;26.100;2023-09-30T09:56:24;101253.56;;;28.13;100.00
56402;BME280;42299;35.160;26.100;2023-09-30T10:06:52;101251.59;;;28.52;100.00
56402;BME280;42299;35.160;26.100;2023-09-30T10:17:16;101240.84;;;28.32;99.99
56402;BME280;42299;35.160;26.100;2023-09-30T10:27:40;101237.06;;;28.18;96.24
56402;BME280;42299;35.160;26.100;2023-09-30T10:38:38;101232.25;;;28.41;91.06
56402;BME280;42299;35.160;26.100;2023-09-30T10:49:29;101223.69;;;28.49;89.70
56402;BME280;42299;35.160;26.100;2023-09-30T11:00:09;101216.59;;;28.46;90.78
56402;BME280;42299;35.160;26.100;2023-09-30T11:10:34;101219.44;;;28.26;95.35
56402;BME280;42299;35.160;26.100;2023-09-30T11:32:25;101197.72;;;28.43;88.63
56402;BME280;42299;35.160;26.100;2023-09-30T11:43:08;101198.75;;;28.58;89.69
56402;BME280;42299;35.160;26.100;2023-09-30T11:53:35;101180.63;;;28.41;94.78
56402;BME280;42299;35.160;26.100;2023-09-30T12:03:58;101195.00;;;28.43;96.59
56402;BME280;42299;35.160;26.100;2023-09-30T12:14:23;101198.97;;;28.36;99.21
56402;BME280;42299;35.160;26.100;2023-09-30T12:24:45;101184.94;;;28.45;100.00
56402;BME280;42299;35.160;26.100;2023-09-30T12:35:10;101168.38;;;28.50;100.00
56402;BME280;42299;35.160;26.100;2023-09-30T12:45:33;101167.19;;;28.21;100.00
56402;BME280;42299;35.160;26.100;2023-09-30T12:55:58;101160.34;;;28.48;97.64
56402;BME280;42299;35.160;26.100;2023-09-30T13:06:21;101144.09;;;28.47;97.88
56402;BME280;42299;35.160;26.100;2023-09-30T13:16:45;101148.03;;;28.41;98.57
56402;BME280;42299;35.160;26.100;2023-09-30T13:27:08;101128.03;;;28.25;96.51
56402;BME280;42299;35.160;26.100;2023-09-30T13:37:33;101137.16;;;28.24;97.18
56402;BME280;42299;35.160;26.100;2023-09-30T13:47:56;101131.31;;;27.79;98.40
56402;BME280;42299;35.160;26.100;2023-09-30T13:58:20;101120.59;;;27.38;97.68
56402;BME280;42299;35.160;26.100;2023-09-30T14:08:43;101135.03;;;27.01;98.27
56402;BME280;42299;35.160;26.100;2023-09-30T14:19:07;101131.31;;;26.83;99.76
56402;BME280;42299;35.160;26.100;2023-09-30T14:29:30;101130.47;;;26.42;100.00
56402;BME280;42299;35.160;26.100;2023-09-30T14:39:55;101125.13;;;26.19;100.00
56402;BME280;42299;35.160;26.100;2023-09-30T14:50:17;101136.91;;;25.98;100.00
56402;BME280;42299;35.160;26.100;2023-09-30T15:00:42;101129.47;;;25.81;100.00
56402;BME280;42299;35.160;26.100;2023-09-30T15:11:05;101135.13;;;25.75;100.00
56402;BME280;42299;35.160;26.100;2023-09-30T15:21:29;101129.34;;;25.62;100.00
56402;BME280;42299;35.160;26.100;2023-09-30T15:31:52;101146.13;;;25.47;100.00
56402;BME280;42299;35.160;26.100;2023-09-30T15:42:17;101154.44;;;25.42;100.00
56402;BME280;42299;35.160;26.100;2023-09-30T15:52:40;101149.22;;;25.15;100.00
56402;BME280;42299;35.160;26.100;2023-09-30T16:03:05;101154.41;;;24.97;100.00
56402;BME280;42299;35.160;26.100;2023-09-30T16:13:28;101160.97;;;24.90;100.00
56402;BME280;42299;35.160;26.100;2023-09-30T16:23:52;101157.41;;;24.88;100.00
56402;BME280;42299;35.160;26.100;2023-09-30T16:34:15;101167.22;;;24.92;100.00
56402;BME280;42299;35.160;26.100;2023-09-30T16:44:40;101160.00;;;24.93;100.00
56402;BME280;42299;35.160;26.100;2023-09-30T16:55:04;101190.31;;;24.75;100.00
56402;BME280;42299;35.160;26.100;2023-09-30T17:05:30;101198.63;;;24.44;100.00
56402;BME280;42299;35.160;26.100;2023-09-30T17:15:53;101203.06;;;24.20;100.00
56402;BME280;42299;35.160;26.100;2023-09-30T17:26:17;101212.09;;;24.17;100.00
56402;BME280;42299;35.160;26.100;2023-09-30T17:36:43;101201.66;;;24.07;100.00
56402;BME280;42299;35.160;26.100;2023-09-30T17:47:07;101213.31;;;24.09;100.00
56402;BME280;42299;35.160;26.100;2023-09-30T17:57:30;101218.09;;;23.99;100.00
56402;BME280;42299;35.160;26.100;2023-09-30T18:07:56;101233.53;;;23.96;100.00
56402;BME280;42299;35.160;26.100;2023-09-30T18:18:19;101234.72;;;23.86;100.00
56402;BME280;42299;35.160;26.100;2023-09-30T18:28:43;101221.50;;;23.76;100.00
56402;BME280;42299;35.160;26.100;2023-09-30T18:39:06;101221.91;;;23.64;100.00
56402;BME280;42299;35.160;26.100;2023-09-30T18:49:31;101223.78;;;23.62;100.00
56402;BME280;42299;35.160;26.100;2023-09-30T18:59:54;101214.00;;;23.58;100.00
56402;BME280;42299;35.160;26.100;2023-09-30T19:10:19;101221.28;;;23.56;100.00
56402;BME280;42299;35.160;26.100;2023-09-30T19:20:43;101215.09;;;23.53;100.00
56402;BME280;42299;35.160;26.100;2023-09-30T19:31:10;101201.41;;;23.59;100.00
56402;BME280;42299;35.160;26.100;2023-09-30T19:41:33;101202.69;;;23.47;100.00
56402;BME280;42299;35.160;26.100;2023-09-30T19:52:03;101201.81;;;23.45;100.00
56402;BME280;42299;35.160;26.100;2023-09-30T20:02:26;101207.31;;;23.42;100.00
56402;BME280;42299;35.160;26.100;2023-09-30T20:12:51;101206.47;;;23.40;100.00
56402;BME280;42299;35.160;26.100;2023-09-30T20:23:14;101215.50;;;23.37;100.00
56402;BME280;42299;35.160;26.100;2023-09-30T20:33:39;101215.75;;;23.30;100.00
56402;BME280;42299;35.160;26.100;2023-09-30T20:44:04;101204.38;;;23.19;100.00
56402;BME280;42299;35.160;26.100;2023-09-30T20:54:30;101201.13;;;23.08;100.00
56402;BME280;42299;35.160;26.100;2023-09-30T21:04:54;101197.00;;;22.96;100.00
56402;BME280;42299;35.160;26.100;2023-09-30T21:15:18;101191.84;;;22.87;100.00
56402;BME280;42299;35.160;26.100;2023-09-30T21:25:40;101195.75;;;22.77;100.00
56402;BME280;42299;35.160;26.100;2023-09-30T21:36:05;101190.75;;;22.61;100.00
56402;BME280;42299;35.160;26.100;2023-09-30T21:46:28;101182.72;;;22.58;100.00
56402;BME280;42299;35.160;26.100;2023-09-30T21:56:53;101188.03;;;22.61;100.00
56402;BME280;42299;35.160;26.100;2023-09-30T22:07:16;101181.22;;;22.82;100.00
56402;BME280;42299;35.160;26.100;2023-09-30T22:17:45;101182.81;;;22.89;100.00
56402;BME280;42299;35.160;26.100;2023-09-30T22:28:09;101173.88;;;22.87;100.00
56402;BME280;42299;35.160;26.100;2023-09-30T22:38:34;101164.00;;;22.88;100.00
56402;BME280;42299;35.160;26.100;2023-09-30T22:48:57;101152.34;;;22.87;100.00
56402;BME280;42299;35.160;26.100;2023-09-30T22:59:22;101154.25;;;22.84;100.00
56402;BME280;42299;35.160;26.100;2023-09-30T23:09:45;101153.72;;;22.70;100.00
56402;BME280;42299;35.160;26.100;2023-09-30T23:20:11;101143.31;;;22.57;100.00
56402;BME280;42299;35.160;26.100;2023-09-30T23:30:36;101134.59;;;22.48;100.00
56402;BME280;42299;35.160;26.100;2023-09-30T23:41:02;101123.97;;;22.43;100.00
56402;BME280;42299;35.160;26.100;2023-09-30T23:51:29;101117.78;;;22.40;100.00
